Time;durP1;ratioP1;P1;durP2;ratioP2;P2;SDS_P1;SDS_P2;PMS_P1;PMS_P2;Temp;Humidity;BMP_temperature;BMP_pressure;BME280_temperature;BME280_humidity;BME280_pressure;Samples;Min_cycle;Max_cycle;Signal;HPM_P1;HPM_P2
2022/05/06 00:00:07;;;;;;;14.00;5.88;;;;;;;12.38;73.51;102669.59;5019549;28;96669;-35
2022/05/06 00:02:33;;;;;;;13.73;5.35;;;;;;;12.36;72.55;102671.47;5018305;28;96978;-35
2022/05/06 00:04:59;;;;;;;16.83;5.55;;;;;;;12.41;72.14;102674.88;5017264;28;100835;-35
2022/05/06 00:07:24;;;;;;;13.10;6.35;;;;;;;12.31;71.95;102653.50;5018878;28;97878;-35
2022/05/06 00:09:49;;;;;;;19.10;5.78;;;;;;;12.35;72.30;102665.16;5017983;28;96803;-35
2022/05/06 00:12:17;;;;;;;13.45;5.38;;;;;;;12.39;72.24;102674.94;5018425;28;107844;-35
2022/05/06 00:14:52;;;;;;;10.35;5.15;;;;;;;12.35;72.58;102665.16;5018701;28;97985;-35
2022/05/06 00:17:18;;;;;;;10.35;5.22;;;;;;;12.26;72.50;102655.53;5018652;28;97665;-35
2022/05/06 00:19:43;;;;;;;11.32;4.95;;;;;;;12.26;73.75;102666.41;5017736;28;96563;-35
2022/05/06 00:22:09;;;;;;;10.43;5.05;;;;;;;12.22;72.99;102655.69;5019022;28;96926;-35
2022/05/06 00:24:34;;;;;;;10.70;4.93;;;;;;;12.16;73.48;102645.09;5017120;28;101083;-35
2022/05/06 00:27:00;;;;;;;10.65;5.20;;;;;;;12.21;73.35;102660.25;5017902;28;126649;-35
2022/05/06 00:29:25;;;;;;;13.48;4.88;;;;;;;12.28;73.52;102666.34;5018946;28;96551;-35
2022/05/06 00:31:51;;;;;;;13.43;4.95;;;;;;;12.18;73.18;102652.25;5018911;28;96902;-35
2022/05/06 00:34:17;;;;;;;12.88;5.35;;;;;;;12.24;72.87;102668.28;5016352;28;101312;-35
2022/05/06 00:36:42;;;;;;;12.45;6.13;;;;;;;12.15;72.66;102651.47;5018336;28;99541;-35
2022/05/06 00:39:08;;;;;;;13.80;4.82;;;;;;;12.21;73.54;102662.97;5034370;28;96538;-35
2022/05/06 00:41:34;;;;;;;11.35;5.40;;;;;;;12.15;72.74;102651.47;5018982;28;96810;-35
2022/05/06 00:44:00;;;;;;;12.23;5.43;;;;;;;12.12;72.82;102652.47;5016800;28;100977;-35
2022/05/06 00:46:26;;;;;;;14.30;5.35;;;;;;;12.07;73.62;102649.94;5033713;28;101198;-35
2022/05/06 00:48:51;;;;;;;10.73;4.90;;;;;;;12.10;74.41;102657.06;5017002;28;96700;-35
2022/05/06 00:51:18;;;;;;;11.10;4.30;;;;;;;12.08;73.83;102656.25;5018750;28;96864;-35
2022/05/06 00:53:44;;;;;;;12.40;5.45;;;;;;;12.11;73.22;102657.03;5015901;28;100887;-35
2022/05/06 00:56:11;;;;;;;12.18;5.57;;;;;;;12.07;73.63;102652.66;5016242;28;99494;-35
2022/05/06 00:58:37;;;;;;;11.73;4.57;;;;;;;12.06;74.05;102648.16;5016550;28;96611;-35
2022/05/06 01:01:04;;;;;;;11.70;4.78;;;;;;;12.10;73.56;102660.66;5016924;28;96829;-35
2022/05/06 01:03:30;;;;;;;11.55;4.88;;;;;;;11.97;73.07;102647.66;5016406;28;100876;-35
2022/05/06 01:05:56;;;;;;;8.77;4.60;;;;;;;12.03;73.76;102661.84;5033198;28;101279;-35
2022/05/06 01:08:21;;;;;;;10.77;3.88;;;;;;;12.04;73.37;102670.91;5018513;28;96637;-35
2022/05/06 01:10:47;;;;;;;9.18;4.43;;;;;;;12.02;73.46;102670.97;5017225;28;96840;-34
2022/05/06 01:13:13;;;;;;;12.32;4.00;;;;;;;11.97;73.59;102666.66;5017608;28;97880;-35
2022/05/06 01:15:38;;;;;;;8.98;4.50;;;;;;;11.95;73.27;102663.09;5017841;28;99086;-35
2022/05/06 01:18:04;;;;;;;9.02;4.57;;;;;;;11.92;73.85;102661.41;5018144;28;96601;-35
2022/05/06 01:20:36;;;;;;;8.02;4.20;;;;;;;11.97;74.01;102672.09;5016660;28;96840;-35
2022/05/06 01:23:02;;;;;;;12.43;5.10;;;;;;;11.90;73.63;102664.16;5015859;28;100950;-35
2022/05/06 01:25:28;;;;;;;10.27;4.88;;;;;;;11.94;72.94;102669.47;5016097;28;100868;-35
2022/05/06 01:28:01;;;;;;;15.75;4.80;;;;;;;11.97;73.09;102680.22;5050409;27;96552;-35
2022/05/06 01:30:42;;;;;;;10.93;5.43;;;;;;;11.85;74.55;102660.69;5017822;28;96668;-35
2022/05/06 01:33:15;;;;;;;14.18;6.10;;;;;;;11.92;74.19;102680.41;5015957;28;101346;-35
2022/05/06 01:35:58;;;;;;;12.15;5.07;;;;;;;11.90;73.92;102672.31;5016165;28;100795;-35
2022/05/06 01:38:46;;;;;;;11.73;5.68;;;;;;;11.95;73.86;102676.69;5016564;28;96647;-35
2022/05/06 01:41:26;;;;;;;11.85;4.72;;;;;;;11.93;73.89;102674.00;5018152;28;96558;-35
2022/05/06 01:43:59;;;;;;;14.07;5.10;;;;;;;11.89;73.85;102665.13;5015968;28;101199;-35
2022/05/06 01:46:27;;;;;;;10.52;5.10;;;;;;;11.89;74.47;102656.06;5049420;27;97688;-35
2022/05/06 01:48:55;;;;;;;13.30;5.93;;;;;;;11.90;74.67;102658.72;5015726;28;97773;-35
2022/05/06 01:51:21;;;;;;;13.43;5.50;;;;;;;11.91;74.12;102659.59;5017521;28;96818;-35
2022/05/06 01:53:47;;;;;;;11.10;4.57;;;;;;;11.93;74.72;102668.59;5015778;28;100767;-35
2022/05/06 01:56:12;;;;;;;15.52;5.35;;;;;;;11.94;73.18;102669.47;5017530;28;97359;-35
2022/05/06 01:58:38;;;;;;;14.23;5.68;;;;;;;11.93;73.92;102670.41;5016866;28;108277;-35
2022/05/06 02:01:04;;;;;;;15.65;5.70;;;;;;;11.94;73.72;102672.19;5017661;28;96821;-35
2022/05/06 02:06:13;;;;;;;14.63;6.40;;;;;;;11.90;73.70;102669.59;5017702;28;96967;-35
2022/05/06 02:08:39;;;;;;;15.52;5.72;;;;;;;11.96;74.02;102676.59;5016698;28;111709;-35
2022/05/06 02:11:05;;;;;;;12.18;5.25;;;;;;;11.97;74.40;102681.13;5015340;28;96960;-35
2022/05/06 02:13:32;;;;;;;11.50;4.93;;;;;;;11.91;73.60;102662.31;5016208;28;97930;-35
2022/05/06 02:15:58;;;;;;;12.38;5.43;;;;;;;11.91;73.86;102670.47;5032289;28;100636;-35
2022/05/06 02:18:24;;;;;;;9.48;4.32;;;;;;;11.88;73.96;102657.03;5017196;28;96656;-35
2022/05/06 02:20:49;;;;;;;13.25;6.45;;;;;;;11.93;74.24;102665.00;5017100;28;96837;-35
2022/05/06 02:23:14;;;;;;;13.85;4.60;;;;;;;11.83;74.18;102649.00;5016975;28;97474;-35
2022/05/06 02:25:40;;;;;;;9.98;4.55;;;;;;;11.83;73.96;102649.00;5015752;28;126719;-35
2022/05/06 02:28:08;;;;;;;9.82;4.40;;;;;;;11.92;74.29;102664.13;5017037;28;96540;-35
2022/05/06 02:33:23;;;;;;;8.57;3.90;;;;;;;11.93;74.10;102667.72;5017223;28;97218;-35
2022/05/06 02:35:49;;;;;;;13.80;5.65;;;;;;;11.89;73.89;102667.84;5016812;28;97912;-35
2022/05/06 02:38:14;;;;;;;10.13;4.35;;;;;;;11.83;74.05;102657.16;5015237;28;96622;-35
2022/05/06 02:40:40;;;;;;;8.88;4.78;;;;;;;11.84;74.22;102667.06;5016984;28;96873;-35
2022/05/06 02:43:07;;;;;;;10.60;4.88;;;;;;;11.79;73.57;102655.50;5015162;28;100960;-35
2022/05/06 02:45:33;;;;;;;11.95;5.45;;;;;;;11.82;73.55;102666.25;5014915;28;100801;-35
2022/05/06 02:47:59;;;;;;;12.18;5.90;;;;;;;11.78;74.34;102667.31;5015675;28;96563;-35
2022/05/06 02:50:25;;;;;;;11.80;4.43;;;;;;;11.82;74.13;102674.41;5015571;28;96812;-35
2022/05/06 02:52:51;;;;;;;15.15;5.15;;;;;;;11.75;73.98;102664.72;5015069;28;100645;-35
2022/05/06 02:55:16;;;;;;;13.65;5.25;;;;;;;11.73;74.36;102666.59;5016587;28;98867;-35
2022/05/06 02:57:42;;;;;;;14.20;5.22;;;;;;;11.79;74.19;102679.03;5016686;28;96446;-35
2022/05/06 03:00:08;;;;;;;10.63;4.45;;;;;;;11.75;75.10;102664.72;5016831;28;96777;-35
2022/05/06 03:02:34;;;;;;;10.25;3.92;;;;;;;11.81;74.31;102672.63;5014307;28;102430;-35
2022/05/06 03:04:59;;;;;;;17.42;5.72;;;;;;;11.80;74.61;102676.28;5016231;28;99166;-35
2022/05/06 03:07:24;;;;;;;14.57;4.75;;;;;;;11.74;74.30;102662.94;5016843;28;96578;-35
2022/05/06 03:09:52;;;;;;;12.18;5.65;;;;;;;11.80;74.01;102679.00;5016166;28;96789;-34
2022/05/06 03:12:18;;;;;;;12.35;4.32;;;;;;;11.81;74.12;102677.16;5015986;28;97497;-35
2022/05/06 03:14:44;;;;;;;13.07;5.13;;;;;;;11.77;74.63;102662.81;5014785;28;101063;-35
2022/05/06 03:17:09;;;;;;;12.70;4.97;;;;;;;11.80;73.73;102667.25;5032428;27;96746;-35
2022/05/06 03:19:34;;;;;;;12.05;5.47;;;;;;;11.78;74.60;102655.56;5020533;28;96804;-35
2022/05/06 03:22:00;;;;;;;11.80;4.55;;;;;;;11.75;74.71;102662.00;5018523;28;125034;-35
2022/05/06 03:24:27;;;;;;;14.93;6.38;;;;;;;11.77;74.08;102667.34;5018081;28;101125;-35
2022/05/06 03:26:52;;;;;;;18.45;5.55;;;;;;;11.68;74.97;102650.47;5051631;27;96627;-35
2022/05/06 03:29:17;;;;;;;15.38;5.43;;;;;;;11.74;74.17;102660.22;5019798;28;96762;-35
2022/05/06 03:31:43;;;;;;;10.93;5.20;;;;;;;11.75;74.11;102662.00;5019094;28;99528;-35
2022/05/06 03:34:08;;;;;;;15.38;5.90;;;;;;;11.73;74.60;102660.25;5019202;28;109642;-35
2022/05/06 03:36:33;;;;;;;13.60;4.85;;;;;;;11.71;74.74;102651.31;5019741;28;96445;-35
2022/05/06 03:39:03;;;;;;;14.75;6.22;;;;;;;11.66;73.95;102646.06;5019666;28;96940;-35
2022/05/06 03:41:28;;;;;;;17.50;5.20;;;;;;;11.75;75.25;102658.38;5018965;28;99801;-35
2022/05/06 03:43:54;;;;;;;17.38;6.15;;;;;;;11.75;74.68;102667.44;5019390;27;100077;-35
2022/05/06 03:46:19;;;;;;;14.77;5.97;;;;;;;11.72;74.43;102658.50;5019840;28;96627;-35
2022/05/06 03:48:44;;;;;;;14.30;4.93;;;;;;;11.74;74.76;102665.63;5019375;28;96817;-35
2022/05/06 03:51:22;;;;;;;13.68;5.53;;;;;;;11.76;74.31;102658.31;5017787;28;118064;-35
2022/05/06 03:53:57;;;;;;;13.85;6.38;;;;;;;11.76;74.84;102662.88;5034406;28;100763;-35
2022/05/06 03:56:24;;;;;;;12.93;5.07;;;;;;;11.71;75.03;102657.63;5018125;28;96573;-35
2022/05/06 03:58:51;;;;;;;14.80;5.75;;;;;;;11.71;74.85;102659.47;5018040;28;96752;-35
2022/05/06 04:01:19;;;;;;;14.02;5.72;;;;;;;11.75;74.02;102664.72;5017495;28;101007;-35
2022/05/06 04:03:57;;;;;;;15.48;5.88;;;;;;;11.71;74.57;102660.34;5017569;28;100776;-35
2022/05/06 04:06:22;;;;;;;14.98;5.88;;;;;;;11.64;74.40;102651.53;5019259;28;96593;-35
2022/05/06 04:08:47;;;;;;;16.65;5.43;;;;;;;11.75;74.16;102666.53;5018991;28;96951;-35
2022/05/06 04:11:13;;;;;;;16.98;6.00;;;;;;;11.71;74.64;102660.34;5017147;28;124567;-35
2022/05/06 04:13:39;;;;;;;16.92;6.13;;;;;;;11.77;74.55;102670.94;5017095;28;100499;-35
2022/05/06 04:16:07;;;;;;;20.10;6.85;;;;;;;11.73;74.32;102655.75;5018785;28;96567;-35
2022/05/06 04:18:32;;;;;;;20.20;6.22;;;;;;;11.78;74.82;102669.16;5017659;28;96900;-35
2022/05/06 04:23:41;;;;;;;16.27;5.47;;;;;;;11.77;74.06;102657.38;5018685;28;97017;-35
2022/05/06 04:26:10;;;;;;;19.98;6.38;;;;;;;11.82;74.28;102671.69;5018839;28;96698;-35
2022/05/06 04:28:36;;;;;;;12.23;5.10;;;;;;;11.83;74.93;102669.84;5017443;28;96845;-35
2022/05/06 04:31:02;;;;;;;18.35;6.78;;;;;;;11.77;74.78;102672.78;5018483;28;98031;-35
2022/05/06 04:33:28;;;;;;;16.55;6.20;;;;;;;11.83;74.53;102678.88;5017438;28;100868;-35
2022/05/06 04:35:54;;;;;;;16.77;6.88;;;;;;;11.80;74.35;102679.00;5018705;28;96723;-35
2022/05/06 04:38:21;;;;;;;17.88;6.90;;;;;;;11.81;74.55;102669.03;5017504;28;96922;-35
2022/05/06 04:40:47;;;;;;;19.50;6.43;;;;;;;11.83;74.30;102678.00;5016487;28;101055;-35
2022/05/06 04:43:12;;;;;;;17.17;6.47;;;;;;;11.81;74.13;102664.47;5018283;28;96882;-35
2022/05/06 04:45:41;;;;;;;19.35;7.57;;;;;;;11.81;75.43;102675.31;5018521;28;96542;-35
2022/05/06 04:48:08;;;;;;;18.15;7.10;;;;;;;11.80;75.65;102679.00;5017119;28;97640;-35
2022/05/06 04:50:35;;;;;;;15.18;7.22;;;;;;;11.80;75.23;102679.00;5018048;28;97942;-35
2022/05/06 04:53:01;;;;;;;21.45;8.40;;;;;;;11.83;74.82;102683.44;5016768;28;101061;-35
2022/05/06 04:55:26;;;;;;;15.48;6.90;;;;;;;11.73;77.05;102674.75;5017450;28;96629;-35
2022/05/06 04:57:52;;;;;;;22.13;6.38;;;;;;;11.75;75.30;102681.00;5018580;28;96807;-35
2022/05/06 05:00:18;;;;;;;22.25;7.88;;;;;;;11.80;74.59;102679.00;5018039;28;98122;-35
2022/05/06 05:02:44;;;;;;;16.83;6.93;;;;;;;11.84;74.84;102674.31;5016294;28;102522;-35
2022/05/06 05:05:09;;;;;;;17.55;7.30;;;;;;;11.85;74.17;102668.84;5018085;28;96600;-35
2022/05/06 05:07:34;;;;;;;20.83;6.55;;;;;;;11.88;75.02;102678.75;5018492;28;96781;-35
2022/05/06 05:10:00;;;;;;;19.92;7.55;;;;;;;11.93;75.11;102693.03;5016239;28;126802;-35
2022/05/06 05:12:25;;;;;;;26.25;8.68;;;;;;;11.92;74.88;102691.28;5017737;28;97191;-35
2022/05/06 05:14:51;;;;;;;23.63;7.70;;;;;;;11.96;74.70;102692.91;5018143;28;96489;-35
2022/05/06 05:17:17;;;;;;;18.60;7.18;;;;;;;11.99;75.13;102700.03;5018098;28;96839;-35
2022/05/06 05:19:43;;;;;;;15.32;7.47;;;;;;;12.00;74.70;102696.41;5017592;28;98591;-35
2022/05/06 05:22:09;;;;;;;24.23;6.82;;;;;;;12.01;75.04;102704.50;5018038;28;97717;-35
2022/05/06 05:24:34;;;;;;;23.38;7.95;;;;;;;11.94;74.44;102692.09;5018169;28;96451;-35
2022/05/06 05:26:59;;;;;;;13.57;6.47;;;;;;;11.99;74.34;102694.63;5018018;28;96832;-35
2022/05/06 05:29:25;;;;;;;16.52;6.95;;;;;;;11.97;74.88;102694.69;5017194;28;97978;-35
2022/05/06 05:31:51;;;;;;;19.25;6.93;;;;;;;11.99;74.33;102695.53;5032671;28;99829;-35
2022/05/06 05:34:16;;;;;;;17.92;7.18;;;;;;;12.04;74.05;102698.94;5016492;28;96599;-35
2022/05/06 05:36:42;;;;;;;20.88;7.55;;;;;;;12.05;74.37;102703.41;5017987;28;96797;-35
2022/05/06 05:39:07;;;;;;;21.27;7.47;;;;;;;12.09;74.93;102696.94;5017422;28;97910;-35
2022/05/06 05:41:33;;;;;;;20.13;7.40;;;;;;;12.09;74.27;102693.34;5016104;28;122015;-35
2022/05/06 05:49:27;;;;;;;17.02;7.63;;;;;;;12.08;74.53;102694.28;5017374;28;96986;-35
2022/05/06 05:51:52;;;;;;;19.63;7.70;;;;;;;12.13;75.00;102700.41;5016609;28;111460;-35
2022/05/06 05:54:17;;;;;;;22.00;7.35;;;;;;;12.18;74.62;102702.94;5017248;28;96646;-35
2022/05/06 05:56:43;;;;;;;18.88;7.68;;;;;;;12.17;74.71;102699.34;5016669;28;112502;-35
2022/05/06 05:59:08;;;;;;;19.45;7.13;;;;;;;12.25;74.09;102709.91;5031835;28;119292;-35
2022/05/06 06:01:33;;;;;;;24.85;7.85;;;;;;;12.28;73.80;102709.81;5016268;28;126797;-35
2022/05/06 06:03:59;;;;;;;22.02;8.10;;;;;;;12.34;74.15;102712.28;5016364;28;111352;-35
2022/05/06 06:06:24;;;;;;;21.05;8.80;;;;;;;12.34;73.85;102709.56;5017519;28;96768;-35
2022/05/06 06:08:49;;;;;;;23.40;8.80;;;;;;;12.29;73.93;102701.59;5016842;28;99656;-35
2022/05/06 06:11:15;;;;;;;18.35;7.20;;;;;;;12.38;74.81;102715.78;5015586;28;126459;-35
2022/05/06 06:13:40;;;;;;;22.17;7.80;;;;;;;12.40;73.70;102712.06;5016913;28;96648;-35
2022/05/06 06:16:05;;;;;;;16.15;6.72;;;;;;;12.47;73.42;102713.59;5017595;28;96768;-35
2022/05/06 06:18:31;;;;;;;17.88;7.07;;;;;;;12.48;73.88;102715.34;5015918;28;115470;-35
2022/05/06 06:20:56;;;;;;;26.58;8.77;;;;;;;12.51;73.80;102714.34;5015896;28;126970;-35
2022/05/06 06:23:23;;;;;;;20.65;7.75;;;;;;;12.53;73.67;102720.59;5017349;28;96530;-35
2022/05/06 06:25:48;;;;;;;24.73;8.05;;;;;;;12.49;74.07;102711.69;5015729;28;96924;-35
2022/05/06 06:28:14;;;;;;;21.17;8.85;;;;;;;12.48;74.04;102709.03;5016768;28;97786;-35
2022/05/06 06:30:40;;;;;;;24.45;8.00;;;;;;;12.65;75.22;102724.66;5016734;28;97806;-35
2022/05/06 06:33:07;;;;;;;26.45;9.73;;;;;;;12.60;74.05;102713.97;5032658;28;96512;-35
2022/05/06 06:35:32;;;;;;;28.77;9.45;;;;;;;12.69;73.89;102727.19;5016130;28;97023;-35
2022/05/06 06:37:58;;;;;;;17.90;7.30;;;;;;;12.72;73.50;102720.75;5016372;28;99698;-35
2022/05/06 06:40:24;;;;;;;25.75;9.30;;;;;;;12.77;73.46;102724.16;5031808;28;100726;-35
2022/05/06 06:42:49;;;;;;;24.98;8.32;;;;;;;12.78;73.86;102716.91;5016427;28;96579;-35
2022/05/06 06:45:14;;;;;;;25.17;7.25;;;;;;;12.79;73.42;102721.38;5017044;28;96702;-35
2022/05/06 06:47:40;;;;;;;27.77;9.55;;;;;;;12.97;72.25;102726.09;5016585;28;97890;-35
2022/05/06 06:50:06;;;;;;;17.80;7.82;;;;;;;12.94;72.67;102721.66;5016257;28;99092;-35
2022/05/06 06:52:31;;;;;;;19.17;7.97;;;;;;;13.03;73.42;102725.81;5016446;28;97232;-35
2022/05/06 06:54:57;;;;;;;16.45;6.95;;;;;;;13.29;72.49;102718.41;5020566;28;96759;-35
2022/05/06 06:57:23;;;;;;;23.38;8.20;;;;;;;13.41;71.82;102738.78;5019683;28;97944;-35
2022/05/06 06:59:48;;;;;;;27.95;9.45;;;;;;;13.45;71.75;102743.16;5018707;28;99506;-35
2022/05/06 07:02:13;;;;;;;16.60;7.78;;;;;;;13.45;71.81;102744.03;5019959;28;98628;-35
2022/05/06 07:04:39;;;;;;;23.75;8.45;;;;;;;13.61;71.31;102733.38;5019449;28;111871;-35
2022/05/06 07:12:32;;;;;;;23.67;8.77;;;;;;;13.95;70.50;102745.47;5020186;28;96889;-35
2022/05/06 07:14:57;;;;;;;23.67;8.38;;;;;;;14.15;70.21;102747.28;5020204;28;96762;-35
2022/05/06 07:17:23;;;;;;;22.15;8.95;;;;;;;14.15;69.93;102752.72;5019734;28;97695;-35
2022/05/06 07:19:48;;;;;;;23.27;9.68;;;;;;;14.34;69.43;102741.84;5019314;28;99073;-35
2022/05/06 07:22:13;;;;;;;24.58;8.15;;;;;;;14.27;69.16;102743.97;5019579;28;100543;-35
2022/05/06 07:24:39;;;;;;;22.83;9.57;;;;;;;14.42;69.25;102746.00;5020403;28;96888;-35
2022/05/06 07:27:04;;;;;;;26.13;8.32;;;;;;;14.41;68.95;102748.78;5034351;28;111378;-35
2022/05/06 07:29:31;;;;;;;23.05;8.55;;;;;;;14.20;68.86;102753.38;5019200;28;99337;-35
2022/05/06 07:31:56;;;;;;;17.80;7.13;;;;;;;13.93;69.55;102744.66;5034654;28;96632;-35
2022/05/06 07:34:22;;;;;;;20.05;7.53;;;;;;;14.21;69.44;102747.88;5020145;28;96822;-35
2022/05/06 07:36:47;;;;;;;19.45;7.78;;;;;;;14.33;68.79;102749.16;5018907;28;111743;-35
2022/05/06 07:39:14;;;;;;;18.65;7.95;;;;;;;14.48;68.34;102746.66;5018193;28;126630;-35
2022/05/06 07:41:40;;;;;;;20.42;7.53;;;;;;;14.33;68.35;102735.53;5035146;28;96564;-35
2022/05/06 07:44:06;;;;;;;14.55;6.55;;;;;;;14.46;67.86;102741.25;5035013;28;96897;-35
2022/05/06 07:46:33;;;;;;;22.15;7.93;;;;;;;14.61;68.20;102746.03;5017831;28;101137;-35
2022/05/06 07:48:59;;;;;;;23.08;8.30;;;;;;;14.80;67.56;102740.56;5018084;28;100920;-35
2022/05/06 07:51:24;;;;;;;24.40;8.35;;;;;;;14.98;67.29;102741.50;5018133;28;96575;-35
2022/05/06 07:53:52;;;;;;;13.68;6.00;;;;;;;14.79;66.80;102736.06;5019455;28;96891;-35
2022/05/06 07:56:18;;;;;;;18.17;7.82;;;;;;;14.71;67.05;102741.03;5018304;28;99217;-35
2022/05/06 07:58:43;;;;;;;18.77;7.32;;;;;;;14.81;67.27;102736.88;5017393;28;101526;-35
2022/05/06 08:01:11;;;;;;;14.82;7.00;;;;;;;15.12;66.77;102734.47;5018500;28;111803;-35
2022/05/06 08:06:23;;;;;;;15.48;6.97;;;;;;;15.56;65.40;102732.16;5019142;28;97144;-35
2022/05/06 08:08:49;;;;;;;13.13;6.20;;;;;;;15.59;64.63;102729.28;5018962;28;97355;-35
2022/05/06 08:11:14;;;;;;;16.40;7.60;;;;;;;15.69;64.64;102724.22;5018743;28;96979;-35
2022/05/06 08:13:39;;;;;;;17.75;7.93;;;;;;;15.81;64.51;102722.72;5019241;28;96903;-35
2022/05/06 08:16:05;;;;;;;18.17;7.93;;;;;;;16.13;63.48;102724.56;5017672;28;127106;-35
2022/05/06 08:18:30;;;;;;;14.02;6.85;;;;;;;16.06;63.08;102724.97;5018795;28;97317;-35
2022/05/06 08:20:55;;;;;;;15.55;6.43;;;;;;;15.85;63.38;102722.47;5018478;28;96540;-35
2022/05/06 08:23:22;;;;;;;14.60;6.32;;;;;;;15.93;63.20;102724.78;5018165;28;111402;-35
2022/05/06 08:25:49;;;;;;;15.70;6.22;;;;;;;16.07;63.28;102708.50;5016972;28;100863;-35
2022/05/06 08:28:14;;;;;;;14.48;6.43;;;;;;;16.00;61.52;102707.09;5017102;28;101044;-35
2022/05/06 08:30:40;;;;;;;14.40;5.88;;;;;;;16.08;62.08;102710.25;5018729;28;96690;-35
2022/05/06 08:33:05;;;;;;;11.98;5.93;;;;;;;16.27;62.31;102711.97;5018715;28;96969;-35
2022/05/06 08:35:32;;;;;;;12.85;5.95;;;;;;;16.43;61.11;102707.44;5018256;28;99754;-35
2022/05/06 08:37:58;;;;;;;14.07;6.70;;;;;;;16.72;61.73;102703.00;5018616;28;99191;-35
2022/05/06 08:40:26;;;;;;;15.38;6.90;;;;;;;17.00;60.51;102712.41;5017275;28;96589;-35
2022/05/06 08:42:52;;;;;;;21.88;7.38;;;;;;;17.08;60.71;102707.34;5018751;28;96805;-35
2022/05/06 08:50:57;;;;;;;19.33;8.05;;;;;;;17.51;60.04;102701.13;5018922;28;96468;-35
2022/05/06 08:53:42;;;;;;;17.08;7.97;;;;;;;17.50;58.86;102707.59;5017215;28;96886;-35
2022/05/06 08:56:08;;;;;;;13.75;6.72;;;;;;;17.44;59.68;102705.22;5017569;27;97876;-35
2022/05/06 08:58:35;;;;;;;15.15;7.70;;;;;;;17.58;60.13;102703.38;5018124;28;97415;-35
2022/05/06 09:01:11;;;;;;;16.30;7.50;;;;;;;18.02;59.41;102712.63;5018388;28;96493;-35
2022/05/06 09:03:40;;;;;;;12.80;6.95;;;;;;;18.26;58.04;102699.19;5017425;28;96798;-35
2022/05/06 09:06:17;;;;;;;15.70;6.57;;;;;;;18.44;58.35;102697.97;5033329;28;100889;-35
2022/05/06 09:08:44;;;;;;;12.75;6.57;;;;;;;18.32;58.10;102695.16;5016260;28;101299;-35
2022/05/06 09:11:10;;;;;;;15.45;7.07;;;;;;;18.30;57.74;102695.25;5015772;28;96932;-35
2022/05/06 09:13:48;;;;;;;12.70;5.75;;;;;;;18.40;58.51;102701.00;5016784;28;96682;-35
2022/05/06 09:16:40;;;;;;;10.75;5.68;;;;;;;18.84;56.94;102705.47;5016848;28;98995;-35
2022/05/06 09:19:21;;;;;;;13.63;5.90;;;;;;;19.23;55.90;102696.38;5017819;28;98034;-35
2022/05/06 09:22:14;;;;;;;12.37;4.60;;;;;;;19.26;54.14;102695.31;5018289;28;96605;-35
2022/05/06 09:24:47;;;;;;;8.32;3.95;;;;;;;19.14;55.50;102693.38;5018053;28;96626;-35
2022/05/06 09:27:18;;;;;;;9.10;4.65;;;;;;;19.26;55.02;102698.06;5017468;28;99358;-35
2022/05/06 09:29:46;;;;;;;9.80;4.53;;;;;;;19.42;55.24;102685.00;5016453;28;100921;-35
2022/05/06 09:32:25;;;;;;;9.07;3.72;;;;;;;19.51;53.63;102703.59;5017796;28;96643;-35
2022/05/06 09:34:53;;;;;;;10.95;4.40;;;;;;;19.42;54.86;102701.47;5016661;28;96795;-34
2022/05/06 09:37:29;;;;;;;9.93;4.95;;;;;;;19.34;53.99;102701.16;5015532;28;101363;-35
2022/05/06 09:40:07;;;;;;;8.80;4.18;;;;;;;19.45;55.01;102705.88;5032659;28;100841;-35
2022/05/06 09:42:33;;;;;;;11.05;4.53;;;;;;;19.47;52.69;102698.41;5033216;28;96727;-35
2022/05/06 09:45:00;;;;;;;12.63;5.22;;;;;;;19.44;54.43;102694.00;5016524;28;96877;-34
2022/05/06 09:47:35;;;;;;;12.63;5.38;;;;;;;19.39;54.44;102684.34;5016010;28;101061;-35
2022/05/06 09:50:05;;;;;;;10.95;5.28;;;;;;;19.65;55.03;102694.38;5017242;28;97896;-35
2022/05/06 09:52:31;;;;;;;14.02;5.70;;;;;;;19.97;53.89;102682.09;5015967;28;96829;-35
2022/05/06 09:54:57;;;;;;;12.32;5.30;;;;;;;20.19;51.92;102692.41;5017932;28;96856;-35
2022/05/06 09:57:23;;;;;;;9.25;4.55;;;;;;;19.96;52.55;102683.09;5015657;28;101129;-35
2022/05/06 09:59:48;;;;;;;11.13;5.03;;;;;;;19.93;52.00;102681.47;5017099;28;99140;-35
2022/05/06 10:02:14;;;;;;;13.80;5.47;;;;;;;20.28;52.97;102687.13;5049661;27;96908;-34
2022/05/06 10:04:39;;;;;;;13.18;5.45;;;;;;;20.30;52.11;102676.88;5017303;28;96821;-35
2022/05/06 10:07:11;;;;;;;19.10;6.13;;;;;;;20.64;52.04;102676.28;5016731;28;97403;-35
2022/05/06 10:10:05;;;;;;;15.50;6.70;;;;;;;21.05;52.23;102678.66;5032101;28;101391;-35
2022/05/06 10:12:37;;;;;;;17.88;6.80;;;;;;;21.13;50.91;102667.91;5028391;27;96831;-35
2022/05/06 10:15:08;;;;;;;12.20;5.43;;;;;;;21.10;50.10;102665.38;5017382;28;96628;-35
2022/05/06 10:17:50;;;;;;;15.07;6.47;;;;;;;21.46;50.25;102674.56;5016758;28;98169;-35
2022/05/06 10:20:34;;;;;;;;;;;;;;;21.69;49.12;102674.63;5049982;27;100966;-35
2022/05/06 10:23:00;;;;;;;12.70;5.28;;;;;;;21.97;49.89;102668.63;5017238;28;96633;-35
2022/05/06 10:25:45;;;;;;;16.10;6.55;;;;;;;22.25;48.17;102671.94;5015943;28;96931;-35
2022/05/06 10:34:12;;;;;;;12.68;5.38;;;;;;;21.72;47.89;102664.22;5020724;28;96739;-35
2022/05/06 10:36:49;;;;;;;18.73;6.32;;;;;;;21.61;49.48;102662.31;5036173;27;96705;-35
2022/05/06 10:39:24;;;;;;;19.20;6.00;;;;;;;21.71;48.52;102651.41;5020214;28;97478;-35
2022/05/06 10:42:09;;;;;;;18.15;7.40;;;;;;;21.95;48.03;102654.09;5020071;28;99309;-35
2022/05/06 10:44:36;;;;;;;19.58;6.82;;;;;;;22.26;47.14;102660.78;5053211;27;96739;-35
2022/05/06 10:47:03;;;;;;;9.57;5.43;;;;;;;22.11;48.10;102641.78;5020876;28;96816;-35
2022/05/06 10:49:35;;;;;;;19.17;6.38;;;;;;;22.14;48.70;102652.56;5018662;28;101190;-35
2022/05/06 10:52:15;;;;;;;17.35;5.93;;;;;;;22.54;47.38;102652.94;5019632;28;100197;-35
2022/05/06 10:54:47;;;;;;;11.68;6.00;;;;;;;22.67;47.89;102650.03;5019984;28;96698;-35
2022/05/06 10:57:12;;;;;;;16.08;6.47;;;;;;;22.73;47.54;102640.34;5020259;28;96757;-35
2022/05/06 10:59:55;;;;;;;15.52;5.45;;;;;;;22.89;47.41;102649.97;5019918;28;97499;-35
2022/05/06 11:02:28;;;;;;;11.02;5.57;;;;;;;23.22;46.64;102642.56;5019682;28;99202;-35
2022/05/06 11:04:59;;;;;;;10.23;5.18;;;;;;;23.39;46.59;102648.53;5020477;28;96562;-35
2022/05/06 11:07:25;;;;;;;12.15;5.63;;;;;;;23.46;45.19;102642.31;5020158;28;96687;-35
2022/05/06 11:09:51;;;;;;;18.65;5.88;;;;;;;23.56;45.83;102639.59;5017586;28;101009;-35
2022/05/06 11:12:28;;;;;;;17.80;5.10;;;;;;;23.79;45.50;102636.69;5019557;28;98835;-35
2022/05/06 11:14:54;;;;;;;13.38;5.18;;;;;;;23.93;44.32;102630.78;5020205;28;96513;-34
2022/05/06 11:17:20;;;;;;;13.10;5.82;;;;;;;23.95;44.43;102631.53;5018773;28;96794;-35
2022/05/06 11:19:45;;;;;;;13.13;5.25;;;;;;;23.74;41.52;102626.94;5018939;28;99476;-35
2022/05/06 11:22:11;;;;;;;10.90;5.60;;;;;;;23.68;45.80;102624.66;5019053;28;110698;-35
2022/05/06 11:24:37;;;;;;;10.35;5.38;;;;;;;23.69;44.71;102623.69;5020044;28;96616;-35
2022/05/06 11:27:16;;;;;;;13.52;5.93;;;;;;;23.98;43.64;102625.75;5020037;28;96834;-34
2022/05/06 11:29:50;;;;;;;9.93;5.05;;;;;;;24.16;43.42;102632.34;5018082;28;101449;-34
2022/05/06 11:32:17;;;;;;;10.77;4.72;;;;;;;24.32;45.06;102628.19;5019383;28;98589;-35
2022/05/06 11:34:52;;;;;;;9.50;4.70;;;;;;;24.36;44.09;102624.13;5018503;28;96636;-34
2022/05/06 11:37:28;;;;;;;8.43;4.63;;;;;;;24.11;41.93;102620.81;5018923;28;96767;-34
2022/05/06 11:42:39;;;;;;;7.88;4.80;;;;;;;23.91;45.00;102617.09;5019840;28;96515;-34
2022/05/06 11:47:50;;;;;;;17.00;6.20;;;;;;;24.07;43.82;102610.16;5019897;28;96435;-34
2022/05/06 11:50:16;;;;;;;20.02;6.00;;;;;;;24.24;43.80;102612.28;5018869;28;99436;-34
2022/05/06 11:52:44;;;;;;;10.48;5.55;;;;;;;24.35;43.90;102616.81;5033616;27;101004;-34
2022/05/06 11:55:10;;;;;;;8.88;4.47;;;;;;;24.02;41.27;102609.72;5019472;28;96738;-35
2022/05/06 11:57:37;;;;;;;9.77;5.15;;;;;;;23.86;44.36;102611.13;5019384;28;96815;-35